Antakya, Turkey
Current Conditions -  °F | °C
As of 9:50 PM on Tuesday 21 Oct 2014 (Local Time) from LTDA Reporting Station
Clear Clear  
Wind Chill: 57°   Ceiling: Unl
Heat Index: 57°   Visibility: 6mi
Dew Point: 41°   Wind: 6mph
Humidity: 55%   Direction: 20°NNE
Pressure: 30.06"   Gusts: NA
Location:  36.2°N, 36.15°E
Report Text: LTDA 211950Z 02005KT 320V040 CAVOK 14/05 Q1018
Loading
Personal Weather Stations






























Interactive Weather Map
Tropical Storm Tracking
New forecast layout! Learn more

10-Day Weather Forecast

Advertisements
Track Severe Weather on mobile